sensor_id;sensor_type;location;lat;lon;timestamp;temperature;humidity
2913;DHT22;1466;48.778;9.166;2022-07-30T00:01:47;22.20;90.90
2913;DHT22;1466;48.778;9.166;2022-07-30T00:04:13;22.30;91.40
2913;DHT22;1466;48.778;9.166;2022-07-30T00:06:39;22.20;91.70
2913;DHT22;1466;48.778;9.166;2022-07-30T00:09:04;22.20;92.00
2913;DHT22;1466;48.778;9.166;2022-07-30T00:11:30;22.10;92.50
2913;DHT22;1466;48.778;9.166;2022-07-30T00:13:55;22.00;93.00
2913;DHT22;1466;48.778;9.166;2022-07-30T00:16:21;22.00;93.40
2913;DHT22;1466;48.778;9.166;2022-07-30T00:18:47;21.90;93.70
2913;DHT22;1466;48.778;9.166;2022-07-30T00:21:12;21.90;94.10
2913;DHT22;1466;48.778;9.166;2022-07-30T00:23:39;21.90;94.30
2913;DHT22;1466;48.778;9.166;2022-07-30T00:26:04;21.90;94.30
2913;DHT22;1466;48.778;9.166;2022-07-30T00:28:30;21.90;94.20
2913;DHT22;1466;48.778;9.166;2022-07-30T00:30:56;21.90;94.30
2913;DHT22;1466;48.778;9.166;2022-07-30T00:33:21;21.90;94.30
2913;DHT22;1466;48.778;9.166;2022-07-30T00:35:47;21.90;94.30
2913;DHT22;1466;48.778;9.166;2022-07-30T00:38:12;21.90;94.20
2913;DHT22;1466;48.778;9.166;2022-07-30T00:40:39;21.90;94.20
2913;DHT22;1466;48.778;9.166;2022-07-30T00:43:05;22.00;94.20
2913;DHT22;1466;48.778;9.166;2022-07-30T00:45:30;22.00;94.20
2913;DHT22;1466;48.778;9.166;2022-07-30T00:47:56;22.10;94.30
2913;DHT22;1466;48.778;9.166;2022-07-30T00:50:26;22.00;94.20
2913;DHT22;1466;48.778;9.166;2022-07-30T00:52:51;22.10;94.20
2913;DHT22;1466;48.778;9.166;2022-07-30T00:55:17;22.00;94.10
2913;DHT22;1466;48.778;9.166;2022-07-30T00:57:43;22.00;94.30
2913;DHT22;1466;48.778;9.166;2022-07-30T01:00:12;22.00;94.40
2913;DHT22;1466;48.778;9.166;2022-07-30T01:02:38;22.00;94.30
2913;DHT22;1466;48.778;9.166;2022-07-30T01:05:04;21.90;94.40
2913;DHT22;1466;48.778;9.166;2022-07-30T01:07:30;21.90;94.60
2913;DHT22;1466;48.778;9.166;2022-07-30T01:09:56;21.80;95.00
2913;DHT22;1466;48.778;9.166;2022-07-30T01:12:24;21.70;95.00
2913;DHT22;1466;48.778;9.166;2022-07-30T01:14:51;21.70;95.10
2913;DHT22;1466;48.778;9.166;2022-07-30T01:17:18;21.70;95.50
2913;DHT22;1466;48.778;9.166;2022-07-30T01:19:46;21.70;95.10
2913;DHT22;1466;48.778;9.166;2022-07-30T01:28:03;21.60;95.20
2913;DHT22;1466;48.778;9.166;2022-07-30T01:30:33;21.80;95.00
2913;DHT22;1466;48.778;9.166;2022-07-30T01:33:00;21.80;95.00
2913;DHT22;1466;48.778;9.166;2022-07-30T01:35:28;21.80;95.00
2913;DHT22;1466;48.778;9.166;2022-07-30T01:37:55;21.80;94.90
2913;DHT22;1466;48.778;9.166;2022-07-30T01:40:22;21.90;94.90
2913;DHT22;1466;48.778;9.166;2022-07-30T01:42:51;22.00;94.70
2913;DHT22;1466;48.778;9.166;2022-07-30T01:45:25;21.90;94.60
2913;DHT22;1466;48.778;9.166;2022-07-30T01:47:53;22.00;94.60
2913;DHT22;1466;48.778;9.166;2022-07-30T01:50:20;22.00;94.60
2913;DHT22;1466;48.778;9.166;2022-07-30T01:52:48;21.90;94.60
2913;DHT22;1466;48.778;9.166;2022-07-30T01:55:16;22.00;94.50
2913;DHT22;1466;48.778;9.166;2022-07-30T01:57:46;22.00;94.60
2913;DHT22;1466;48.778;9.166;2022-07-30T02:00:13;21.90;94.50
2913;DHT22;1466;48.778;9.166;2022-07-30T02:02:39;21.90;94.60
2913;DHT22;1466;48.778;9.166;2022-07-30T02:05:07;22.00;94.60
2913;DHT22;1466;48.778;9.166;2022-07-30T02:07:39;21.90;94.60
2913;DHT22;1466;48.778;9.166;2022-07-30T02:10:13;21.90;94.60
2913;DHT22;1466;48.778;9.166;2022-07-30T02:12:50;21.90;94.70
2913;DHT22;1466;48.778;9.166;2022-07-30T02:15:32;21.90;94.70
2913;DHT22;1466;48.778;9.166;2022-07-30T02:18:16;21.90;94.60
2913;DHT22;1466;48.778;9.166;2022-07-30T02:20:50;21.90;94.60
2913;DHT22;1466;48.778;9.166;2022-07-30T02:23:18;21.80;94.70
2913;DHT22;1466;48.778;9.166;2022-07-30T02:25:48;21.70;94.70
2913;DHT22;1466;48.778;9.166;2022-07-30T02:28:16;21.70;94.80
2913;DHT22;1466;48.778;9.166;2022-07-30T02:31:00;21.60;94.80
2913;DHT22;1466;48.778;9.166;2022-07-30T02:33:29;21.50;94.80
2913;DHT22;1466;48.778;9.166;2022-07-30T02:35:58;21.50;94.90
2913;DHT22;1466;48.778;9.166;2022-07-30T02:38:26;21.50;95.00
2913;DHT22;1466;48.778;9.166;2022-07-30T02:40:58;21.40;94.90
2913;DHT22;1466;48.778;9.166;2022-07-30T02:43:25;21.40;95.00
2913;DHT22;1466;48.778;9.166;2022-07-30T02:45:52;21.30;95.00
2913;DHT22;1466;48.778;9.166;2022-07-30T02:48:20;21.30;95.10
2913;DHT22;1466;48.778;9.166;2022-07-30T02:50:48;21.30;95.10
2913;DHT22;1466;48.778;9.166;2022-07-30T02:53:16;21.30;95.10
2913;DHT22;1466;48.778;9.166;2022-07-30T02:55:44;21.30;95.10
2913;DHT22;1466;48.778;9.166;2022-07-30T02:58:11;21.30;95.10
2913;DHT22;1466;48.778;9.166;2022-07-30T03:00:41;21.30;95.10
2913;DHT22;1466;48.778;9.166;2022-07-30T03:03:07;21.20;95.10
2913;DHT22;1466;48.778;9.166;2022-07-30T03:05:35;21.20;95.10
2913;DHT22;1466;48.778;9.166;2022-07-30T03:08:02;21.20;95.20
2913;DHT22;1466;48.778;9.166;2022-07-30T03:10:29;21.10;95.20
2913;DHT22;1466;48.778;9.166;2022-07-30T03:12:57;21.10;95.20
2913;DHT22;1466;48.778;9.166;2022-07-30T03:15:24;21.10;95.30
2913;DHT22;1466;48.778;9.166;2022-07-30T03:17:52;21.00;95.40
2913;DHT22;1466;48.778;9.166;2022-07-30T03:20:22;21.00;95.50
2913;DHT22;1466;48.778;9.166;2022-07-30T03:22:52;21.00;95.40
2913;DHT22;1466;48.778;9.166;2022-07-30T03:25:27;21.00;95.50
2913;DHT22;1466;48.778;9.166;2022-07-30T03:27:54;21.00;95.50
2913;DHT22;1466;48.778;9.166;2022-07-30T03:30:23;21.00;95.50
2913;DHT22;1466;48.778;9.166;2022-07-30T03:32:51;21.00;95.60
2913;DHT22;1466;48.778;9.166;2022-07-30T03:35:17;21.00;95.50
2913;DHT22;1466;48.778;9.166;2022-07-30T03:37:44;21.00;95.50
2913;DHT22;1466;48.778;9.166;2022-07-30T03:40:10;21.00;95.50
2913;DHT22;1466;48.778;9.166;2022-07-30T03:42:38;20.90;95.40
2913;DHT22;1466;48.778;9.166;2022-07-30T03:45:06;20.90;95.30
2913;DHT22;1466;48.778;9.166;2022-07-30T03:47:36;20.90;95.40
2913;DHT22;1466;48.778;9.166;2022-07-30T03:50:03;20.90;95.40
2913;DHT22;1466;48.778;9.166;2022-07-30T03:52:32;20.80;95.40
2913;DHT22;1466;48.778;9.166;2022-07-30T03:54:59;20.90;95.40
2913;DHT22;1466;48.778;9.166;2022-07-30T03:57:25;20.90;95.40
2913;DHT22;1466;48.778;9.166;2022-07-30T03:59:50;20.80;95.30
2913;DHT22;1466;48.778;9.166;2022-07-30T04:02:16;20.80;95.20
2913;DHT22;1466;48.778;9.166;2022-07-30T04:04:42;20.70;95.30
2913;DHT22;1466;48.778;9.166;2022-07-30T04:07:08;20.70;95.30
2913;DHT22;1466;48.778;9.166;2022-07-30T04:09:34;20.70;95.30
2913;DHT22;1466;48.778;9.166;2022-07-30T04:12:00;20.70;95.20
2913;DHT22;1466;48.778;9.166;2022-07-30T04:14:25;20.70;95.30
2913;DHT22;1466;48.778;9.166;2022-07-30T04:16:59;20.80;95.20
2913;DHT22;1466;48.778;9.166;2022-07-30T04:19:42;20.80;95.00
2913;DHT22;1466;48.778;9.166;2022-07-30T04:22:11;20.80;95.00
2913;DHT22;1466;48.778;9.166;2022-07-30T04:24:39;20.80;95.00
2913;DHT22;1466;48.778;9.166;2022-07-30T04:27:05;20.70;94.90
2913;DHT22;1466;48.778;9.166;2022-07-30T04:29:31;20.80;94.90
2913;DHT22;1466;48.778;9.166;2022-07-30T04:31:57;20.80;94.90
2913;DHT22;1466;48.778;9.166;2022-07-30T04:34:22;20.80;94.80
2913;DHT22;1466;48.778;9.166;2022-07-30T04:36:48;20.80;94.70
2913;DHT22;1466;48.778;9.166;2022-07-30T04:39:14;20.80;94.60
2913;DHT22;1466;48.778;9.166;2022-07-30T04:41:39;20.80;94.60
2913;DHT22;1466;48.778;9.166;2022-07-30T04:44:05;20.80;94.70
2913;DHT22;1466;48.778;9.166;2022-07-30T04:46:31;20.80;94.60
2913;DHT22;1466;48.778;9.166;2022-07-30T04:48:56;20.80;94.60
2913;DHT22;1466;48.778;9.166;2022-07-30T04:51:27;21.00;94.40
2913;DHT22;1466;48.778;9.166;2022-07-30T04:53:54;21.00;94.40
2913;DHT22;1466;48.778;9.166;2022-07-30T04:56:23;21.00;94.30
2913;DHT22;1466;48.778;9.166;2022-07-30T04:58:50;21.00;94.20
2913;DHT22;1466;48.778;9.166;2022-07-30T05:01:22;21.10;94.20
2913;DHT22;1466;48.778;9.166;2022-07-30T05:03:50;21.10;94.20
2913;DHT22;1466;48.778;9.166;2022-07-30T05:06:18;21.10;94.10
2913;DHT22;1466;48.778;9.166;2022-07-30T05:08:44;21.10;94.00
2913;DHT22;1466;48.778;9.166;2022-07-30T05:11:13;21.10;94.10
2913;DHT22;1466;48.778;9.166;2022-07-30T05:13:41;21.10;94.10
2913;DHT22;1466;48.778;9.166;2022-07-30T05:16:07;21.10;94.00
2913;DHT22;1466;48.778;9.166;2022-07-30T05:18:33;21.10;94.00
2913;DHT22;1466;48.778;9.166;2022-07-30T05:20:59;21.10;94.20
2913;DHT22;1466;48.778;9.166;2022-07-30T05:23:24;21.20;93.90
2913;DHT22;1466;48.778;9.166;2022-07-30T05:25:50;21.30;93.80
2913;DHT22;1466;48.778;9.166;2022-07-30T05:28:15;21.30;93.70
2913;DHT22;1466;48.778;9.166;2022-07-30T05:30:41;21.30;93.50
2913;DHT22;1466;48.778;9.166;2022-07-30T05:33:07;21.40;93.50
2913;DHT22;1466;48.778;9.166;2022-07-30T05:35:32;21.50;93.20
2913;DHT22;1466;48.778;9.166;2022-07-30T05:37:59;21.50;93.20
2913;DHT22;1466;48.778;9.166;2022-07-30T05:40:24;21.60;93.10
2913;DHT22;1466;48.778;9.166;2022-07-30T05:42:50;21.60;92.90
2913;DHT22;1466;48.778;9.166;2022-07-30T05:45:16;21.60;92.80
2913;DHT22;1466;48.778;9.166;2022-07-30T05:47:41;21.60;92.80
2913;DHT22;1466;48.778;9.166;2022-07-30T05:50:07;21.70;92.70
2913;DHT22;1466;48.778;9.166;2022-07-30T05:52:33;21.70;92.70
2913;DHT22;1466;48.778;9.166;2022-07-30T05:54:59;21.80;93.00
2913;DHT22;1466;48.778;9.166;2022-07-30T05:57:25;21.80;92.60
2913;DHT22;1466;48.778;9.166;2022-07-30T05:59:51;21.90;92.60
2913;DHT22;1466;48.778;9.166;2022-07-30T06:02:17;21.90;92.50
2913;DHT22;1466;48.778;9.166;2022-07-30T06:04:42;22.00;92.30
2913;DHT22;1466;48.778;9.166;2022-07-30T06:07:08;22.00;91.90
2913;DHT22;1466;48.778;9.166;2022-07-30T06:09:34;22.10;91.70
2913;DHT22;1466;48.778;9.166;2022-07-30T06:11:59;22.10;91.50
2913;DHT22;1466;48.778;9.166;2022-07-30T06:14:25;22.20;91.10
2913;DHT22;1466;48.778;9.166;2022-07-30T06:16:50;22.30;90.80
2913;DHT22;1466;48.778;9.166;2022-07-30T06:19:16;22.30;90.60
2913;DHT22;1466;48.778;9.166;2022-07-30T06:21:42;22.40;90.30
2913;DHT22;1466;48.778;9.166;2022-07-30T06:24:07;22.50;90.40
2913;DHT22;1466;48.778;9.166;2022-07-30T06:26:33;22.50;90.00
2913;DHT22;1466;48.778;9.166;2022-07-30T06:28:59;22.60;90.00
2913;DHT22;1466;48.778;9.166;2022-07-30T06:31:24;22.70;89.30
2913;DHT22;1466;48.778;9.166;2022-07-30T06:33:50;22.70;88.70
2913;DHT22;1466;48.778;9.166;2022-07-30T06:36:15;22.70;88.40
2913;DHT22;1466;48.778;9.166;2022-07-30T06:38:41;22.80;88.50
2913;DHT22;1466;48.778;9.166;2022-07-30T06:41:07;22.80;88.80
2913;DHT22;1466;48.778;9.166;2022-07-30T06:43:32;22.80;87.90
2913;DHT22;1466;48.778;9.166;2022-07-30T06:45:58;22.80;87.70
2913;DHT22;1466;48.778;9.166;2022-07-30T06:48:24;22.90;87.90
2913;DHT22;1466;48.778;9.166;2022-07-30T06:50:51;22.90;87.60
2913;DHT22;1466;48.778;9.166;2022-07-30T06:53:16;23.00;87.00
2913;DHT22;1466;48.778;9.166;2022-07-30T06:55:42;23.00;86.80
2913;DHT22;1466;48.778;9.166;2022-07-30T06:58:08;23.10;87.40
2913;DHT22;1466;48.778;9.166;2022-07-30T07:00:33;23.10;86.40
2913;DHT22;1466;48.778;9.166;2022-07-30T07:02:59;23.20;86.30
2913;DHT22;1466;48.778;9.166;2022-07-30T07:05:24;23.20;86.10
2913;DHT22;1466;48.778;9.166;2022-07-30T07:07:53;23.30;85.90
2913;DHT22;1466;48.778;9.166;2022-07-30T07:10:19;23.30;85.40
2913;DHT22;1466;48.778;9.166;2022-07-30T07:12:45;23.30;85.30
2913;DHT22;1466;48.778;9.166;2022-07-30T07:15:11;23.40;85.70
2913;DHT22;1466;48.778;9.166;2022-07-30T07:17:37;23.50;85.30
2913;DHT22;1466;48.778;9.166;2022-07-30T07:20:03;23.60;85.00
2913;DHT22;1466;48.778;9.166;2022-07-30T07:22:29;23.50;84.20
2913;DHT22;1466;48.778;9.166;2022-07-30T07:24:55;23.60;84.00
2913;DHT22;1466;48.778;9.166;2022-07-30T07:27:20;23.70;83.60
2913;DHT22;1466;48.778;9.166;2022-07-30T07:29:46;23.60;83.20
2913;DHT22;1466;48.778;9.166;2022-07-30T07:32:12;23.60;83.40
2913;DHT22;1466;48.778;9.166;2022-07-30T07:34:37;23.50;83.10
2913;DHT22;1466;48.778;9.166;2022-07-30T07:37:03;23.40;83.10
2913;DHT22;1466;48.778;9.166;2022-07-30T07:39:28;23.50;82.90
2913;DHT22;1466;48.778;9.166;2022-07-30T07:41:54;23.50;82.10
2913;DHT22;1466;48.778;9.166;2022-07-30T07:44:20;23.50;82.20
2913;DHT22;1466;48.778;9.166;2022-07-30T07:46:45;23.70;82.50
2913;DHT22;1466;48.778;9.166;2022-07-30T07:49:11;23.80;82.50
2913;DHT22;1466;48.778;9.166;2022-07-30T07:51:37;23.80;81.40
2913;DHT22;1466;48.778;9.166;2022-07-30T07:54:02;24.00;80.40
2913;DHT22;1466;48.778;9.166;2022-07-30T07:56:28;23.90;79.80
2913;DHT22;1466;48.778;9.166;2022-07-30T07:58:54;23.90;80.10
2913;DHT22;1466;48.778;9.166;2022-07-30T08:01:20;23.90;78.90
2913;DHT22;1466;48.778;9.166;2022-07-30T08:03:46;23.90;78.70
2913;DHT22;1466;48.778;9.166;2022-07-30T08:06:12;24.10;78.90
2913;DHT22;1466;48.778;9.166;2022-07-30T08:08:37;24.10;78.70
2913;DHT22;1466;48.778;9.166;2022-07-30T08:11:04;24.20;78.30
2913;DHT22;1466;48.778;9.166;2022-07-30T08:13:30;24.20;78.00
2913;DHT22;1466;48.778;9.166;2022-07-30T08:15:57;24.20;77.30
2913;DHT22;1466;48.778;9.166;2022-07-30T08:18:23;24.30;77.50
2913;DHT22;1466;48.778;9.166;2022-07-30T08:20:49;24.40;77.50
2913;DHT22;1466;48.778;9.166;2022-07-30T08:23:16;24.40;76.80
2913;DHT22;1466;48.778;9.166;2022-07-30T08:25:43;24.50;76.90
2913;DHT22;1466;48.778;9.166;2022-07-30T08:28:09;24.70;76.70
2913;DHT22;1466;48.778;9.166;2022-07-30T08:30:34;24.70;76.20
2913;DHT22;1466;48.778;9.166;2022-07-30T08:33:01;24.70;75.70
2913;DHT22;1466;48.778;9.166;2022-07-30T08:35:27;24.60;76.20
2913;DHT22;1466;48.778;9.166;2022-07-30T08:37:53;24.70;74.40
2913;DHT22;1466;48.778;9.166;2022-07-30T08:40:19;24.80;74.40
2913;DHT22;1466;48.778;9.166;2022-07-30T08:42:46;24.70;74.40
2913;DHT22;1466;48.778;9.166;2022-07-30T08:45:12;24.70;74.40
2913;DHT22;1466;48.778;9.166;2022-07-30T08:47:40;24.70;73.00
2913;DHT22;1466;48.778;9.166;2022-07-30T08:50:07;24.80;73.20
2913;DHT22;1466;48.778;9.166;2022-07-30T08:52:36;24.90;73.20
2913;DHT22;1466;48.778;9.166;2022-07-30T08:55:06;25.10;73.30
2913;DHT22;1466;48.778;9.166;2022-07-30T08:57:33;25.30;72.60
2913;DHT22;1466;48.778;9.166;2022-07-30T08:59:59;25.10;71.90
2913;DHT22;1466;48.778;9.166;2022-07-30T09:02:26;25.10;72.30
2913;DHT22;1466;48.778;9.166;2022-07-30T09:04:53;25.00;71.90
2913;DHT22;1466;48.778;9.166;2022-07-30T09:07:19;25.10;72.10
2913;DHT22;1466;48.778;9.166;2022-07-30T09:09:44;25.10;71.80
2913;DHT22;1466;48.778;9.166;2022-07-30T09:12:40;24.90;71.90
2913;DHT22;1466;48.778;9.166;2022-07-30T09:15:15;24.90;72.50
2913;DHT22;1466;48.778;9.166;2022-07-30T09:20:14;25.00;72.20
2913;DHT22;1466;48.778;9.166;2022-07-30T09:22:45;25.00;71.40
2913;DHT22;1466;48.778;9.166;2022-07-30T09:25:11;25.20;71.50
2913;DHT22;1466;48.778;9.166;2022-07-30T09:27:47;25.40;71.30
2913;DHT22;1466;48.778;9.166;2022-07-30T09:30:14;25.50;71.00
2913;DHT22;1466;48.778;9.166;2022-07-30T09:35:13;25.70;70.50
2913;DHT22;1466;48.778;9.166;2022-07-30T09:37:39;25.80;70.60
2913;DHT22;1466;48.778;9.166;2022-07-30T09:40:17;26.10;70.20
2913;DHT22;1466;48.778;9.166;2022-07-30T09:42:43;26.20;68.90
2913;DHT22;1466;48.778;9.166;2022-07-30T09:45:11;27.00;68.40
2913;DHT22;1466;48.778;9.166;2022-07-30T09:47:42;27.70;66.40
2913;DHT22;1466;48.778;9.166;2022-07-30T09:50:16;28.10;64.50
2913;DHT22;1466;48.778;9.166;2022-07-30T09:52:44;28.00;63.80
2913;DHT22;1466;48.778;9.166;2022-07-30T09:55:11;27.50;65.70
2913;DHT22;1466;48.778;9.166;2022-07-30T09:58:03;28.00;63.90
2913;DHT22;1466;48.778;9.166;2022-07-30T10:00:32;28.40;62.60
2913;DHT22;1466;48.778;9.166;2022-07-30T10:02:58;28.50;61.50
2913;DHT22;1466;48.778;9.166;2022-07-30T10:05:28;28.70;61.60
2913;DHT22;1466;48.778;9.166;2022-07-30T10:10:26;29.00;60.90
2913;DHT22;1466;48.778;9.166;2022-07-30T10:12:58;29.10;60.40
2913;DHT22;1466;48.778;9.166;2022-07-30T10:15:30;28.80;60.40
2913;DHT22;1466;48.778;9.166;2022-07-30T10:17:57;28.40;61.00
2913;DHT22;1466;48.778;9.166;2022-07-30T10:20:24;28.20;61.10
2913;DHT22;1466;48.778;9.166;2022-07-30T10:22:51;27.80;61.60
2913;DHT22;1466;48.778;9.166;2022-07-30T10:25:21;27.90;61.70
2913;DHT22;1466;48.778;9.166;2022-07-30T10:27:48;27.90;61.10
2913;DHT22;1466;48.778;9.166;2022-07-30T10:30:14;27.70;61.40
2913;DHT22;1466;48.778;9.166;2022-07-30T10:32:40;27.50;61.30
2913;DHT22;1466;48.778;9.166;2022-07-30T10:35:07;27.30;61.70
2913;DHT22;1466;48.778;9.166;2022-07-30T10:37:36;27.10;62.60
2913;DHT22;1466;48.778;9.166;2022-07-30T10:42:45;26.90;63.20
2913;DHT22;1466;48.778;9.166;2022-07-30T10:45:27;26.80;63.30
2913;DHT22;1466;48.778;9.166;2022-07-30T10:47:55;26.70;63.70
2913;DHT22;1466;48.778;9.166;2022-07-30T10:50:23;26.80;63.30
2913;DHT22;1466;48.778;9.166;2022-07-30T10:52:55;26.90;62.80
2913;DHT22;1466;48.778;9.166;2022-07-30T10:55:22;27.10;62.60
2913;DHT22;1466;48.778;9.166;2022-07-30T10:58:01;27.30;63.30
2913;DHT22;1466;48.778;9.166;2022-07-30T11:00:31;27.30;61.70
2913;DHT22;1466;48.778;9.166;2022-07-30T11:03:15;27.40;61.50
2913;DHT22;1466;48.778;9.166;2022-07-30T11:05:42;27.40;61.70
2913;DHT22;1466;48.778;9.166;2022-07-30T11:10:56;27.40;61.40
2913;DHT22;1466;48.778;9.166;2022-07-30T11:13:47;27.30;60.80
2913;DHT22;1466;48.778;9.166;2022-07-30T11:16:14;27.30;61.60
2913;DHT22;1466;48.778;9.166;2022-07-30T11:19:01;27.40;61.20
2913;DHT22;1466;48.778;9.166;2022-07-30T11:21:28;27.40;60.40
2913;DHT22;1466;48.778;9.166;2022-07-30T11:23:54;27.60;61.50
2913;DHT22;1466;48.778;9.166;2022-07-30T11:29:07;27.30;61.70
2913;DHT22;1466;48.778;9.166;2022-07-30T11:31:52;27.10;60.90
2913;DHT22;1466;48.778;9.166;2022-07-30T11:42:33;27.50;60.30
2913;DHT22;1466;48.778;9.166;2022-07-30T11:47:44;27.40;60.60
2913;DHT22;1466;48.778;9.166;2022-07-30T11:50:21;27.30;60.90
2913;DHT22;1466;48.778;9.166;2022-07-30T11:52:56;27.30;61.30
2913;DHT22;1466;48.778;9.166;2022-07-30T11:57:53;27.60;61.00
2913;DHT22;1466;48.778;9.166;2022-07-30T12:00:19;27.90;60.30
2913;DHT22;1466;48.778;9.166;2022-07-30T12:02:46;28.30;60.00
2913;DHT22;1466;48.778;9.166;2022-07-30T12:05:13;28.70;59.40
2913;DHT22;1466;48.778;9.166;2022-07-30T12:07:38;28.90;58.70
2913;DHT22;1466;48.778;9.166;2022-07-30T12:10:18;28.90;58.20
2913;DHT22;1466;48.778;9.166;2022-07-30T12:12:45;28.70;58.50
2913;DHT22;1466;48.778;9.166;2022-07-30T12:15:30;28.40;58.50
2913;DHT22;1466;48.778;9.166;2022-07-30T12:17:56;28.10;59.10
2913;DHT22;1466;48.778;9.166;2022-07-30T12:20:21;27.90;59.40
2913;DHT22;1466;48.778;9.166;2022-07-30T12:22:47;27.90;59.20
2913;DHT22;1466;48.778;9.166;2022-07-30T12:25:13;27.80;59.00
2913;DHT22;1466;48.778;9.166;2022-07-30T12:27:40;27.80;59.10
2913;DHT22;1466;48.778;9.166;2022-07-30T12:30:09;27.80;59.10
2913;DHT22;1466;48.778;9.166;2022-07-30T12:32:35;27.80;58.70
2913;DHT22;1466;48.778;9.166;2022-07-30T12:35:02;27.80;58.50
2913;DHT22;1466;48.778;9.166;2022-07-30T12:37:28;28.00;58.40
2913;DHT22;1466;48.778;9.166;2022-07-30T12:40:11;28.10;58.50
2913;DHT22;1466;48.778;9.166;2022-07-30T12:42:51;28.10;58.40
2913;DHT22;1466;48.778;9.166;2022-07-30T12:45:31;28.00;58.30
2913;DHT22;1466;48.778;9.166;2022-07-30T12:47:58;28.00;58.10
2913;DHT22;1466;48.778;9.166;2022-07-30T12:50:25;28.00;58.10
2913;DHT22;1466;48.778;9.166;2022-07-30T12:52:52;28.00;58.10
2913;DHT22;1466;48.778;9.166;2022-07-30T12:55:27;28.00;58.00
2913;DHT22;1466;48.778;9.166;2022-07-30T12:57:57;27.90;58.00
2913;DHT22;1466;48.778;9.166;2022-07-30T13:00:48;28.00;58.40
2913;DHT22;1466;48.778;9.166;2022-07-30T13:05:51;28.20;58.30
2913;DHT22;1466;48.778;9.166;2022-07-30T13:08:17;28.40;58.30
2913;DHT22;1466;48.778;9.166;2022-07-30T13:10:57;28.50;58.60
2913;DHT22;1466;48.778;9.166;2022-07-30T13:13:24;28.60;57.60
2913;DHT22;1466;48.778;9.166;2022-07-30T13:16:04;28.40;57.10
2913;DHT22;1466;48.778;9.166;2022-07-30T13:18:31;28.30;57.50
2913;DHT22;1466;48.778;9.166;2022-07-30T13:20:58;28.30;57.50
2913;DHT22;1466;48.778;9.166;2022-07-30T13:23:25;28.30;57.70
2913;DHT22;1466;48.778;9.166;2022-07-30T13:25:52;28.20;57.80
2913;DHT22;1466;48.778;9.166;2022-07-30T13:28:18;28.20;57.60
2913;DHT22;1466;48.778;9.166;2022-07-30T13:30:43;28.30;57.60
2913;DHT22;1466;48.778;9.166;2022-07-30T13:33:10;28.40;57.70
2913;DHT22;1466;48.778;9.166;2022-07-30T13:35:36;28.40;57.40
2913;DHT22;1466;48.778;9.166;2022-07-30T13:38:01;28.40;57.50
2913;DHT22;1466;48.778;9.166;2022-07-30T13:40:28;28.30;57.50
2913;DHT22;1466;48.778;9.166;2022-07-30T13:42:57;28.20;57.80
2913;DHT22;1466;48.778;9.166;2022-07-30T13:45:22;28.20;58.30
2913;DHT22;1466;48.778;9.166;2022-07-30T13:47:48;28.10;58.50
2913;DHT22;1466;48.778;9.166;2022-07-30T13:50:13;28.10;58.60
2913;DHT22;1466;48.778;9.166;2022-07-30T13:52:39;28.00;58.50
2913;DHT22;1466;48.778;9.166;2022-07-30T13:55:05;28.10;58.50
2913;DHT22;1466;48.778;9.166;2022-07-30T13:57:40;28.20;58.50
2913;DHT22;1466;48.778;9.166;2022-07-30T14:00:07;28.10;58.60
2913;DHT22;1466;48.778;9.166;2022-07-30T14:02:34;28.10;58.80
2913;DHT22;1466;48.778;9.166;2022-07-30T14:05:00;28.10;58.90
2913;DHT22;1466;48.778;9.166;2022-07-30T14:07:32;28.10;58.80
2913;DHT22;1466;48.778;9.166;2022-07-30T14:09:57;28.20;58.80
2913;DHT22;1466;48.778;9.166;2022-07-30T14:12:23;28.30;58.70
2913;DHT22;1466;48.778;9.166;2022-07-30T14:14:48;28.40;58.60
2913;DHT22;1466;48.778;9.166;2022-07-30T14:17:14;28.50;58.70
2913;DHT22;1466;48.778;9.166;2022-07-30T14:19:40;28.60;58.70
2913;DHT22;1466;48.778;9.166;2022-07-30T14:22:05;28.70;58.80
2913;DHT22;1466;48.778;9.166;2022-07-30T14:24:31;28.80;58.80
2913;DHT22;1466;48.778;9.166;2022-07-30T14:26:56;28.80;58.80
2913;DHT22;1466;48.778;9.166;2022-07-30T14:29:22;28.70;58.60
2913;DHT22;1466;48.778;9.166;2022-07-30T14:31:47;28.70;58.80
2913;DHT22;1466;48.778;9.166;2022-07-30T14:34:13;28.70;58.60
2913;DHT22;1466;48.778;9.166;2022-07-30T14:36:42;28.70;58.70
2913;DHT22;1466;48.778;9.166;2022-07-30T14:39:08;28.60;58.70
2913;DHT22;1466;48.778;9.166;2022-07-30T14:41:34;28.60;58.60
2913;DHT22;1466;48.778;9.166;2022-07-30T14:44:01;28.50;58.40
2913;DHT22;1466;48.778;9.166;2022-07-30T14:46:27;28.50;58.40
2913;DHT22;1466;48.778;9.166;2022-07-30T14:48:53;28.50;58.20
2913;DHT22;1466;48.778;9.166;2022-07-30T14:51:18;28.40;58.30
2913;DHT22;1466;48.778;9.166;2022-07-30T14:53:44;28.40;58.30
2913;DHT22;1466;48.778;9.166;2022-07-30T14:56:11;28.40;58.50
2913;DHT22;1466;48.778;9.166;2022-07-30T14:58:37;28.60;58.50
2913;DHT22;1466;48.778;9.166;2022-07-30T15:01:03;28.70;58.20
2913;DHT22;1466;48.778;9.166;2022-07-30T15:03:33;28.80;58.00
2913;DHT22;1466;48.778;9.166;2022-07-30T15:05:59;28.80;57.80
2913;DHT22;1466;48.778;9.166;2022-07-30T15:08:25;28.80;57.60
2913;DHT22;1466;48.778;9.166;2022-07-30T15:10:50;28.90;57.60
2913;DHT22;1466;48.778;9.166;2022-07-30T15:13:16;28.80;57.40
2913;DHT22;1466;48.778;9.166;2022-07-30T15:15:41;28.60;57.40
2913;DHT22;1466;48.778;9.166;2022-07-30T15:18:07;28.60;57.80
2913;DHT22;1466;48.778;9.166;2022-07-30T15:20:33;28.60;57.70
2913;DHT22;1466;48.778;9.166;2022-07-30T15:22:58;28.60;58.00
2913;DHT22;1466;48.778;9.166;2022-07-30T15:25:24;28.70;58.60
2913;DHT22;1466;48.778;9.166;2022-07-30T15:27:50;28.80;57.90
2913;DHT22;1466;48.778;9.166;2022-07-30T15:30:16;28.70;57.80
2913;DHT22;1466;48.778;9.166;2022-07-30T15:32:42;28.60;57.90
2913;DHT22;1466;48.778;9.166;2022-07-30T15:35:07;28.60;58.10
2913;DHT22;1466;48.778;9.166;2022-07-30T15:37:33;28.60;58.30
2913;DHT22;1466;48.778;9.166;2022-07-30T15:39:59;28.70;58.20
2913;DHT22;1466;48.778;9.166;2022-07-30T15:42:24;28.90;58.10
2913;DHT22;1466;48.778;9.166;2022-07-30T15:44:52;28.90;58.00
2913;DHT22;1466;48.778;9.166;2022-07-30T15:47:17;28.90;57.90
2913;DHT22;1466;48.778;9.166;2022-07-30T15:49:43;28.90;58.00
2913;DHT22;1466;48.778;9.166;2022-07-30T15:52:09;29.00;58.10
2913;DHT22;1466;48.778;9.166;2022-07-30T15:54:34;29.00;58.10
2913;DHT22;1466;48.778;9.166;2022-07-30T15:57:00;29.10;58.10
2913;DHT22;1466;48.778;9.166;2022-07-30T15:59:26;29.20;57.90
2913;DHT22;1466;48.778;9.166;2022-07-30T16:01:52;29.40;58.00
2913;DHT22;1466;48.778;9.166;2022-07-30T16:04:18;29.50;57.80
2913;DHT22;1466;48.778;9.166;2022-07-30T16:06:43;29.60;58.00
2913;DHT22;1466;48.778;9.166;2022-07-30T16:09:09;29.70;58.10
2913;DHT22;1466;48.778;9.166;2022-07-30T16:11:35;29.60;57.90
2913;DHT22;1466;48.778;9.166;2022-07-30T16:14:01;29.50;57.40
2913;DHT22;1466;48.778;9.166;2022-07-30T16:16:26;29.50;57.50
2913;DHT22;1466;48.778;9.166;2022-07-30T16:18:52;29.50;57.60
2913;DHT22;1466;48.778;9.166;2022-07-30T16:21:17;29.40;57.60
2913;DHT22;1466;48.778;9.166;2022-07-30T16:23:43;29.40;57.40
2913;DHT22;1466;48.778;9.166;2022-07-30T16:26:10;29.20;57.40
2913;DHT22;1466;48.778;9.166;2022-07-30T16:28:36;29.00;57.20
2913;DHT22;1466;48.778;9.166;2022-07-30T16:31:03;28.80;57.30
2913;DHT22;1466;48.778;9.166;2022-07-30T16:33:29;28.80;57.40
2913;DHT22;1466;48.778;9.166;2022-07-30T16:35:54;28.90;57.50
2913;DHT22;1466;48.778;9.166;2022-07-30T16:38:20;28.90;57.60
2913;DHT22;1466;48.778;9.166;2022-07-30T16:40:48;28.80;57.10
2913;DHT22;1466;48.778;9.166;2022-07-30T16:43:14;28.80;56.90